createdAt,value
2023-03-19T00:05:57.660Z,87.84
2023-03-19T00:11:24.547Z,88.59
2023-03-19T00:14:41.694Z,88.30
2023-03-19T00:17:14.967Z,88.78
2023-03-19T00:30:53.692Z,89.10
2023-03-19T00:36:34.882Z,89.17
2023-03-19T00:39:23.671Z,89.16
2023-03-19T00:42:01.533Z,89.43
2023-03-19T00:44:35.676Z,89.81
2023-03-19T00:52:37.547Z,90.01
2023-03-19T00:55:27.657Z,89.93
2023-03-19T00:58:12.010Z,89.90
2023-03-19T01:06:20.387Z,90.01
2023-03-19T01:09:01.168Z,89.93
2023-03-19T01:14:30.602Z,89.91
2023-03-19T01:19:59.724Z,89.67
2023-03-19T01:22:31.295Z,89.87
2023-03-19T01:25:09.848Z,90.09
2023-03-19T01:27:54.408Z,89.96
2023-03-19T01:35:55.792Z,89.62
2023-03-19T01:41:14.532Z,90.27
2023-03-19T01:49:29.728Z,90.60
2023-03-19T01:52:03.004Z,90.84
2023-03-19T01:57:26.532Z,91.36
2023-03-19T02:00:11.194Z,91.52
2023-03-19T02:08:22.302Z,91.45
2023-03-19T02:10:55.012Z,91.69
2023-03-19T02:19:19.528Z,91.75
2023-03-19T02:22:03.563Z,91.94
2023-03-19T02:30:30.429Z,91.99
2023-03-19T02:38:53.494Z,91.89
2023-03-19T02:41:28.654Z,91.89
2023-03-19T02:47:17.537Z,91.81
2023-03-19T02:49:51.334Z,91.88
2023-03-19T02:52:23.451Z,91.71
2023-03-19T02:54:56.402Z,91.78
2023-03-19T02:57:33.079Z,92.26
2023-03-19T03:00:11.940Z,92.01
2023-03-19T03:05:24.311Z,92.30
2023-03-19T03:08:01.469Z,92.65
2023-03-19T03:10:32.223Z,92.29
2023-03-19T03:13:08.423Z,92.09
2023-03-19T03:15:37.546Z,92.47
2023-03-19T03:18:16.223Z,92.58
2023-03-19T03:23:46.575Z,92.49
2023-03-19T03:26:17.767Z,92.59
2023-03-19T03:28:58.396Z,92.35
2023-03-19T03:34:28.557Z,92.65
2023-03-19T03:37:18.829Z,93.06
2023-03-19T03:39:51.306Z,93.05
2023-03-19T03:45:14.682Z,92.86
2023-03-19T03:47:44.805Z,93.27
2023-03-19T03:53:02.894Z,93.59
2023-03-19T03:55:51.225Z,93.71
2023-03-19T03:58:28.606Z,93.68
2023-03-19T04:12:11.082Z,93.55
2023-03-19T04:17:28.012Z,92.58
2023-03-19T04:25:55.293Z,92.32
2023-03-19T04:28:27.808Z,91.81
2023-03-19T04:31:10.981Z,91.70
2023-03-19T04:33:41.720Z,91.67
2023-03-19T04:39:00.856Z,91.49
2023-03-19T04:52:52.139Z,91.28
2023-03-19T04:55:41.904Z,90.90
2023-03-19T04:58:27.755Z,91.29
2023-03-19T05:01:08.406Z,91.37
2023-03-19T05:09:13.060Z,91.48
2023-03-19T05:14:30.096Z,90.91
2023-03-19T05:20:32.856Z,90.75
2023-03-19T05:23:03.587Z,90.87
2023-03-19T05:28:33.878Z,90.88
2023-03-19T05:33:54.901Z,90.93
2023-03-19T05:36:29.284Z,90.89
2023-03-19T05:42:03.535Z,89.92
2023-03-19T05:44:37.147Z,90.46
2023-03-19T05:47:27.950Z,90.40
2023-03-19T05:50:31.264Z,90.63
2023-03-19T05:53:00.467Z,90.45
2023-03-19T05:58:22.066Z,90.43
2023-03-19T06:00:53.623Z,91.10
2023-03-19T06:06:14.046Z,90.72
2023-03-19T06:11:57.581Z,91.00
2023-03-19T06:14:40.351Z,90.91
2023-03-19T06:17:16.232Z,91.01
2023-03-19T06:19:48.330Z,91.01
2023-03-19T06:25:03.704Z,91.27
2023-03-19T06:27:43.990Z,91.35
2023-03-19T06:30:18.543Z,91.37
2023-03-19T06:32:50.541Z,91.68
2023-03-19T06:35:44.908Z,91.87
2023-03-19T06:38:29.376Z,92.12
2023-03-19T06:43:47.825Z,92.45
2023-03-19T06:49:06.941Z,93.04
2023-03-19T06:57:27.609Z,94.12
2023-03-19T07:00:11.096Z,94.12
2023-03-19T07:02:47.909Z,94.13
2023-03-19T07:05:36.782Z,93.88
2023-03-19T07:08:15.750Z,93.99
2023-03-19T07:22:42.616Z,94.20
2023-03-19T07:28:07.772Z,94.22
2023-03-19T07:36:04.950Z,93.97
2023-03-19T07:51:06.307Z,93.50
2023-03-19T07:53:32.891Z,93.56
2023-03-19T07:55:59.442Z,93.53
2023-03-19T07:58:26.315Z,93.18
2023-03-19T08:00:53.913Z,92.92
2023-03-19T08:03:20.498Z,92.96
2023-03-19T08:05:49.838Z,92.80
2023-03-19T08:08:17.366Z,92.63
2023-03-19T08:10:43.922Z,92.69
2023-03-19T08:13:10.497Z,92.86
2023-03-19T08:15:37.103Z,92.94
2023-03-19T08:18:05.265Z,92.30
2023-03-19T08:20:33.142Z,92.37
2023-03-19T08:22:59.802Z,92.45
2023-03-19T08:25:27.166Z,92.17
2023-03-19T08:27:54.267Z,91.93
2023-03-19T08:30:20.996Z,91.39
2023-03-19T08:32:49.213Z,91.27
2023-03-19T08:35:19.478Z,91.02
2023-03-19T08:37:46.376Z,90.47
2023-03-19T08:40:13.446Z,90.50
2023-03-19T08:42:45.373Z,89.92
2023-03-19T08:45:16.795Z,89.86
2023-03-19T08:47:44.575Z,89.59
2023-03-19T08:50:12.927Z,89.60
2023-03-19T08:52:39.881Z,89.45
2023-03-19T08:55:09.814Z,89.46
2023-03-19T08:57:38.910Z,88.95
2023-03-19T09:00:06.480Z,88.39
2023-03-19T09:02:33.446Z,88.35
2023-03-19T09:05:00.086Z,87.91
2023-03-19T09:07:27.224Z,87.71
2023-03-19T09:09:56.014Z,87.67
2023-03-19T09:12:22.657Z,87.39
2023-03-19T09:14:50.823Z,86.90
2023-03-19T09:17:21.134Z,86.58
2023-03-19T09:19:48.063Z,87.24
2023-03-19T09:22:15.980Z,86.81
2023-03-19T09:24:42.802Z,86.96
2023-03-19T09:27:09.794Z,86.88
2023-03-19T09:29:36.902Z,87.25
2023-03-19T09:32:03.750Z,86.79
2023-03-19T09:34:30.514Z,86.52
2023-03-19T09:37:04.269Z,86.81
2023-03-19T09:39:34.246Z,86.74
2023-03-19T09:42:15.193Z,87.30
2023-03-19T09:44:46.820Z,87.01
2023-03-19T09:47:26.387Z,86.74
2023-03-19T09:50:04.087Z,86.57
2023-03-19T09:52:44.803Z,86.65
2023-03-19T09:55:28.938Z,86.62
2023-03-19T09:57:58.162Z,86.75
2023-03-19T10:00:28.266Z,86.66
2023-03-19T10:03:03.640Z,85.96
2023-03-19T10:05:45.447Z,85.95
2023-03-19T10:08:39.461Z,86.44
2023-03-19T10:11:24.735Z,86.56
2023-03-19T10:14:04.073Z,86.58
2023-03-19T10:16:31.025Z,85.86
2023-03-19T10:19:02.625Z,86.05
2023-03-19T10:21:34.312Z,85.76
2023-03-19T10:24:06.891Z,85.88
2023-03-19T10:26:35.886Z,85.80
2023-03-19T10:29:10.609Z,86.66
2023-03-19T10:35:06.753Z,86.68
2023-03-19T10:37:35.685Z,86.53
2023-03-19T10:40:02.662Z,86.79
2023-03-19T10:42:55.268Z,86.56
2023-03-19T10:50:56.063Z,87.09
2023-03-19T10:53:41.910Z,86.69
2023-03-19T10:56:19.439Z,86.38
2023-03-19T10:59:01.159Z,85.83
2023-03-19T11:01:33.040Z,86.42
2023-03-19T11:04:02.329Z,86.24
2023-03-19T11:06:33.700Z,86.12
2023-03-19T11:09:02.950Z,86.45
2023-03-19T11:11:36.790Z,86.32
2023-03-19T11:14:23.257Z,86.84
2023-03-19T11:17:04.472Z,86.83
2023-03-19T11:19:39.268Z,87.17
2023-03-19T11:22:05.684Z,86.97
2023-03-19T11:24:33.920Z,86.47
2023-03-19T11:27:00.669Z,86.74
2023-03-19T11:29:28.894Z,86.73
2023-03-19T11:32:21.712Z,86.67
2023-03-19T11:35:06.153Z,86.95
2023-03-19T11:37:50.312Z,86.89
2023-03-19T11:40:31.687Z,86.65
2023-03-19T11:43:24.397Z,87.08
2023-03-19T11:46:11.375Z,86.64
2023-03-19T11:48:57.743Z,86.35
2023-03-19T11:51:38.523Z,86.31
2023-03-19T11:54:22.660Z,86.38
2023-03-19T11:57:09.756Z,86.61
2023-03-19T12:00:09.815Z,86.27
2023-03-19T12:02:44.577Z,86.97
2023-03-19T12:05:26.525Z,86.71
2023-03-19T12:08:01.161Z,86.52
2023-03-19T12:10:44.387Z,85.89
2023-03-19T12:13:25.832Z,86.02
2023-03-19T12:15:55.789Z,85.75
2023-03-19T12:18:30.734Z,85.88
2023-03-19T12:21:14.556Z,86.18
2023-03-19T12:23:50.568Z,86.03
2023-03-19T12:26:31.472Z,86.25
2023-03-19T12:29:15.004Z,86.01
2023-03-19T12:32:05.274Z,85.78
2023-03-19T12:34:36.159Z,85.23
2023-03-19T12:37:08.888Z,84.73
2023-03-19T12:39:42.228Z,85.21
2023-03-19T12:42:16.442Z,84.83
2023-03-19T12:44:52.245Z,84.68
2023-03-19T12:47:26.175Z,84.85
2023-03-19T12:49:59.768Z,84.18
2023-03-19T12:52:36.488Z,84.11
2023-03-19T12:55:14.341Z,83.78
2023-03-19T12:57:46.750Z,82.84
2023-03-19T13:00:36.374Z,83.13
2023-03-19T13:03:22.559Z,82.89
2023-03-19T13:05:59.638Z,83.72
2023-03-19T13:08:38.086Z,82.63
2023-03-19T13:11:12.179Z,82.91
2023-03-19T13:13:50.269Z,82.18
2023-03-19T13:16:28.922Z,82.12
2023-03-19T13:19:14.000Z,82.22
2023-03-19T13:21:42.037Z,81.82
2023-03-19T13:24:23.649Z,82.14
2023-03-19T13:26:52.746Z,81.75
2023-03-19T13:29:24.576Z,81.48
2023-03-19T13:31:52.269Z,80.97
2023-03-19T13:34:21.628Z,81.19
2023-03-19T13:36:54.309Z,80.94
2023-03-19T13:39:29.150Z,81.08
2023-03-19T13:42:11.752Z,80.76
2023-03-19T13:44:47.811Z,79.94
2023-03-19T13:47:27.829Z,80.24
2023-03-19T13:50:15.728Z,79.77
2023-03-19T13:52:45.277Z,79.71
2023-03-19T13:55:25.024Z,79.16
2023-03-19T13:58:12.295Z,79.37
2023-03-19T14:00:42.950Z,79.18
2023-03-19T14:03:33.274Z,78.73
2023-03-19T14:06:01.718Z,78.76
2023-03-19T14:08:43.007Z,78.54
2023-03-19T14:11:10.536Z,77.83
2023-03-19T14:13:42.375Z,77.41
2023-03-19T14:16:18.636Z,77.74
2023-03-19T14:18:45.917Z,77.44
2023-03-19T14:21:31.065Z,76.76
2023-03-19T14:27:33.069Z,76.88
2023-03-19T14:30:10.332Z,76.64
2023-03-19T14:32:41.054Z,77.02
2023-03-19T14:35:13.022Z,77.16
2023-03-19T14:37:48.979Z,77.15
2023-03-19T14:40:22.338Z,77.65
2023-03-19T14:43:09.924Z,77.16
2023-03-19T14:45:42.073Z,77.40
2023-03-19T14:48:57.713Z,77.61
2023-03-19T14:51:54.339Z,76.46
2023-03-19T14:54:35.735Z,76.97
2023-03-19T14:57:17.188Z,76.82
2023-03-19T14:59:43.783Z,77.11
2023-03-19T15:02:20.980Z,77.16
2023-03-19T15:04:49.299Z,76.60
2023-03-19T15:07:21.970Z,76.84
2023-03-19T15:09:54.826Z,77.31
2023-03-19T15:12:36.826Z,77.27
2023-03-19T15:15:24.345Z,77.19
2023-03-19T15:18:03.946Z,77.31
2023-03-19T15:20:43.127Z,77.06
2023-03-19T15:23:26.367Z,76.84
2023-03-19T15:25:58.218Z,76.60
2023-03-19T15:28:29.685Z,76.41
2023-03-19T15:31:12.807Z,76.21
2023-03-19T15:33:49.747Z,76.80
2023-03-19T15:36:22.585Z,77.30
2023-03-19T15:39:02.279Z,76.59
2023-03-19T15:41:32.150Z,77.39
2023-03-19T15:44:04.285Z,77.22
2023-03-19T15:46:34.953Z,77.64
2023-03-19T15:49:11.285Z,77.30
2023-03-19T15:51:40.284Z,77.68
2023-03-19T15:54:08.485Z,77.26
2023-03-19T15:56:35.399Z,77.33
2023-03-19T15:59:04.080Z,77.85
2023-03-19T16:01:35.267Z,78.13
2023-03-19T16:04:06.921Z,78.46
2023-03-19T16:06:39.931Z,78.38
2023-03-19T16:09:17.185Z,78.63
2023-03-19T16:11:46.070Z,78.61
2023-03-19T16:14:17.159Z,78.83
2023-03-19T16:16:46.567Z,78.69
2023-03-19T16:19:31.766Z,78.70
2023-03-19T16:21:59.824Z,78.61
2023-03-19T16:24:31.111Z,78.50
2023-03-19T16:26:59.584Z,78.04
2023-03-19T16:29:27.579Z,78.20
2023-03-19T16:32:02.324Z,78.60
2023-03-19T16:34:47.580Z,78.36
2023-03-19T16:37:37.971Z,78.36
2023-03-19T16:40:25.400Z,78.54
2023-03-19T16:42:56.573Z,78.60
2023-03-19T16:45:31.194Z,78.77
2023-03-19T16:47:59.955Z,78.95
2023-03-19T16:50:30.818Z,78.93
2023-03-19T16:52:59.821Z,79.59
2023-03-19T16:55:32.220Z,79.79
2023-03-19T16:58:07.223Z,80.61
2023-03-19T17:00:35.383Z,80.73
2023-03-19T17:03:02.050Z,81.19
2023-03-19T17:05:30.046Z,81.64
2023-03-19T17:07:57.049Z,81.71
2023-03-19T17:10:26.882Z,82.02
2023-03-19T17:12:55.017Z,82.19
2023-03-19T17:15:34.406Z,82.30
2023-03-19T17:18:02.703Z,82.35
2023-03-19T17:20:34.275Z,82.67
2023-03-19T17:23:00.979Z,82.86
2023-03-19T17:25:28.110Z,82.92
2023-03-19T17:27:55.637Z,83.04
2023-03-19T17:30:22.168Z,83.23
2023-03-19T17:32:50.618Z,82.95
2023-03-19T17:35:22.224Z,83.07
2023-03-19T17:37:50.208Z,83.28
2023-03-19T17:40:21.527Z,83.26
2023-03-19T17:42:50.443Z,83.56
2023-03-19T17:45:19.654Z,83.54
2023-03-19T17:47:51.253Z,83.57
2023-03-19T17:50:21.121Z,84.01
2023-03-19T17:52:49.261Z,84.30
2023-03-19T17:55:25.272Z,84.27
2023-03-19T17:57:53.395Z,84.24
2023-03-19T18:00:23.636Z,84.30
2023-03-19T18:02:54.609Z,84.90
2023-03-19T18:05:24.028Z,84.77
2023-03-19T18:07:53.950Z,85.21
2023-03-19T18:10:24.716Z,85.04
2023-03-19T18:13:07.516Z,85.34
2023-03-19T18:15:35.206Z,85.47
2023-03-19T18:18:04.309Z,85.87
2023-03-19T18:20:37.836Z,85.81
2023-03-19T18:23:06.369Z,85.93
2023-03-19T18:25:35.576Z,86.12
2023-03-19T18:28:03.738Z,86.12
2023-03-19T18:30:33.834Z,86.50
2023-03-19T18:33:03.874Z,86.36
2023-03-19T18:35:36.742Z,86.63
2023-03-19T18:38:04.025Z,86.60
2023-03-19T18:40:33.069Z,86.71
2023-03-19T18:43:01.288Z,86.81
2023-03-19T18:45:30.631Z,86.88
2023-03-19T18:47:57.321Z,86.86
2023-03-19T18:50:26.427Z,87.04
2023-03-19T18:52:54.104Z,87.42
2023-03-19T18:55:27.260Z,87.46
2023-03-19T18:57:58.016Z,87.54
2023-03-19T19:00:28.252Z,87.30
2023-03-19T19:02:58.564Z,87.22
2023-03-19T19:05:28.876Z,87.28
2023-03-19T19:07:58.072Z,87.42
2023-03-19T19:10:31.047Z,87.50
2023-03-19T19:12:58.488Z,87.54
2023-03-19T19:15:30.453Z,87.85
2023-03-19T19:17:58.091Z,87.56
2023-03-19T19:20:36.487Z,87.77
2023-03-19T19:23:03.397Z,87.76
2023-03-19T19:25:33.790Z,87.52
2023-03-19T19:28:13.270Z,88.00
2023-03-19T19:30:40.467Z,87.90
2023-03-19T19:33:17.707Z,87.80
2023-03-19T19:35:45.430Z,88.18
2023-03-19T19:38:14.977Z,88.05
2023-03-19T19:40:44.661Z,88.17
2023-03-19T19:43:18.413Z,88.26
2023-03-19T19:45:47.536Z,88.61
2023-03-19T19:48:17.898Z,88.72
2023-03-19T19:50:47.163Z,88.44
2023-03-19T19:53:15.365Z,88.25
2023-03-19T19:55:43.693Z,88.40
2023-03-19T19:58:21.579Z,88.52
2023-03-19T20:01:02.249Z,88.31
2023-03-19T20:03:32.431Z,88.18
2023-03-19T20:06:00.656Z,88.38
2023-03-19T20:08:27.576Z,88.41
2023-03-19T20:10:54.992Z,88.53
2023-03-19T20:13:27.151Z,88.50
2023-03-19T20:15:55.876Z,88.17
2023-03-19T20:18:30.806Z,88.25
2023-03-19T20:20:58.191Z,88.44
2023-03-19T20:23:25.623Z,88.60
2023-03-19T20:25:53.146Z,88.48
2023-03-19T20:28:27.493Z,88.64
2023-03-19T20:30:55.310Z,88.45
2023-03-19T20:33:22.455Z,88.76
2023-03-19T20:35:49.857Z,88.64
2023-03-19T20:38:16.567Z,89.06
2023-03-19T20:40:51.412Z,89.44
2023-03-19T20:43:32.274Z,89.60
2023-03-19T20:46:02.997Z,89.58
2023-03-19T20:48:32.693Z,89.26
2023-03-19T20:51:02.083Z,89.32
2023-03-19T20:53:29.233Z,89.78
2023-03-19T20:55:56.511Z,90.17
2023-03-19T20:58:28.940Z,90.02
2023-03-19T21:00:58.474Z,90.16
2023-03-19T21:03:27.438Z,90.08
2023-03-19T21:06:03.409Z,90.09
2023-03-19T21:08:42.084Z,90.16
2023-03-19T21:11:14.423Z,89.96
2023-03-19T21:13:41.529Z,89.79
2023-03-19T21:16:17.758Z,89.47
2023-03-19T21:18:46.405Z,89.63
2023-03-19T21:21:16.381Z,89.48
2023-03-19T21:23:56.380Z,89.38
2023-03-19T21:26:24.861Z,89.18
2023-03-19T21:28:58.726Z,89.01
2023-03-19T21:31:27.961Z,88.61
2023-03-19T21:33:58.571Z,88.39
2023-03-19T21:36:26.736Z,88.05
2023-03-19T21:38:53.533Z,88.08
2023-03-19T21:41:26.844Z,88.09
2023-03-19T21:43:59.904Z,87.69
2023-03-19T21:46:29.680Z,87.91
2023-03-19T21:49:00.824Z,87.91
2023-03-19T21:51:31.052Z,87.97
2023-03-19T21:53:58.476Z,87.84
2023-03-19T21:56:41.309Z,87.71
2023-03-19T21:59:15.294Z,87.64
2023-03-19T22:01:42.615Z,87.90
2023-03-19T22:04:09.280Z,87.79
2023-03-19T22:06:44.014Z,87.70
2023-03-19T22:09:10.717Z,87.81
2023-03-19T22:11:38.682Z,87.56
2023-03-19T22:14:14.579Z,87.44
2023-03-19T22:16:42.719Z,87.41
2023-03-19T22:19:15.056Z,87.49
2023-03-19T22:21:41.890Z,87.25
2023-03-19T22:24:09.664Z,87.48
2023-03-19T22:26:41.310Z,87.13
2023-03-19T22:29:16.032Z,87.48
2023-03-19T22:31:43.090Z,87.23
2023-03-19T22:34:14.801Z,87.01
2023-03-19T22:36:41.431Z,87.16
2023-03-19T22:39:11.393Z,87.35
2023-03-19T22:41:42.759Z,87.48
2023-03-19T22:44:18.159Z,87.17
2023-03-19T22:46:45.041Z,87.25
2023-03-19T22:49:18.213Z,87.20
2023-03-19T22:51:46.144Z,87.27
2023-03-19T22:54:12.819Z,87.39
2023-03-19T22:56:39.391Z,87.56
2023-03-19T22:59:06.093Z,87.29
2023-03-19T23:01:45.301Z,87.47
2023-03-19T23:04:26.752Z,87.24
2023-03-19T23:06:54.996Z,87.42
2023-03-19T23:09:24.520Z,87.04
2023-03-19T23:11:53.121Z,87.23
2023-03-19T23:14:36.013Z,86.79
2023-03-19T23:17:14.237Z,86.90
2023-03-19T23:19:41.227Z,86.75
2023-03-19T23:22:16.030Z,86.78
2023-03-19T23:24:45.103Z,86.50
2023-03-19T23:27:23.255Z,86.23
2023-03-19T23:29:51.091Z,86.28
2023-03-19T23:32:17.728Z,86.54
2023-03-19T23:34:58.090Z,86.58
2023-03-19T23:37:28.733Z,86.51
2023-03-19T23:39:58.112Z,86.90
2023-03-19T23:42:36.958Z,86.87
2023-03-19T23:45:04.134Z,86.81
2023-03-19T23:47:31.395Z,86.88
2023-03-19T23:49:58.067Z,86.98
2023-03-19T23:52:24.732Z,87.25
2023-03-19T23:54:52.708Z,86.70
2023-03-19T23:57:21.772Z,86.60
2023-03-19T23:59:51.644Z,86.68
